createdAt,value
2023-02-22T00:00:06.325Z,76.22
2023-02-22T00:03:35.020Z,76.15
2023-02-22T00:06:56.238Z,76.05
2023-02-22T00:10:27.060Z,75.91
2023-02-22T00:13:34.229Z,75.99
2023-02-22T00:17:02.647Z,76.06
2023-02-22T00:20:19.400Z,76.55
2023-02-22T00:23:47.528Z,76.38
2023-02-22T00:27:06.043Z,76.25
2023-02-22T00:30:24.399Z,76.36
2023-02-22T00:33:33.686Z,76.54
2023-02-22T00:36:48.434Z,76.88
2023-02-22T00:39:54.747Z,77.50
2023-02-22T00:43:06.376Z,77.80
2023-02-22T00:46:30.518Z,77.92
2023-02-22T00:49:42.671Z,77.89
2023-02-22T00:52:58.328Z,77.72
2023-02-22T00:56:03.927Z,77.60
2023-02-22T00:59:27.427Z,77.78
2023-02-22T01:02:51.965Z,77.88
2023-02-22T01:06:00.482Z,78.20
2023-02-22T01:09:23.497Z,78.35
2023-02-22T01:12:30.465Z,78.48
2023-02-22T01:15:45.777Z,78.66
2023-02-22T01:19:12.712Z,79.01
2023-02-22T01:22:35.214Z,79.14
2023-02-22T01:25:44.614Z,79.29
2023-02-22T01:29:04.392Z,79.51
2023-02-22T01:32:26.992Z,79.54
2023-02-22T01:35:50.199Z,79.61
2023-02-22T01:39:10.355Z,79.38
2023-02-22T01:42:33.426Z,79.25
2023-02-22T01:45:52.322Z,78.91
2023-02-22T01:49:21.489Z,78.71
2023-02-22T01:52:28.786Z,78.77
2023-02-22T01:55:35.927Z,78.51
2023-02-22T01:58:52.262Z,78.68
2023-02-22T02:01:56.916Z,78.81
2023-02-22T02:05:08.464Z,78.89
2023-02-22T02:08:52.622Z,78.62
2023-02-22T02:11:56.162Z,78.64
2023-02-22T02:15:25.972Z,78.71
2023-02-22T02:18:30.079Z,78.56
2023-02-22T02:21:42.190Z,78.61
2023-02-22T02:25:06.822Z,78.57
2023-02-22T02:28:34.638Z,78.89
2023-02-22T02:32:06.176Z,79.17
2023-02-22T02:35:24.728Z,79.25
2023-02-22T02:39:07.248Z,79.60
2023-02-22T02:42:15.690Z,79.63
2023-02-22T02:45:26.469Z,79.22
2023-02-22T02:48:32.784Z,79.07
2023-02-22T02:51:40.202Z,79.37
2023-02-22T02:54:45.867Z,79.60
2023-02-22T02:57:48.804Z,79.76
2023-02-22T03:00:55.785Z,79.92
2023-02-22T03:04:20.397Z,79.90
2023-02-22T03:07:26.133Z,79.89
2023-02-22T03:10:44.485Z,79.75
2023-02-22T03:13:47.372Z,79.68
2023-02-22T03:16:58.547Z,79.50
2023-02-22T03:20:31.911Z,79.70
2023-02-22T03:23:48.227Z,79.94
2023-02-22T03:27:04.662Z,80.19
2023-02-22T03:30:12.443Z,80.59
2023-02-22T03:33:21.031Z,80.91
2023-02-22T03:36:35.828Z,80.71
2023-02-22T03:39:39.056Z,80.81
2023-02-22T03:42:48.939Z,81.04
2023-02-22T03:45:53.329Z,81.13
2023-02-22T03:49:03.811Z,81.44
2023-02-22T03:52:08.111Z,81.70
2023-02-22T03:55:12.658Z,81.57
2023-02-22T03:58:16.528Z,81.16
2023-02-22T04:01:20.181Z,81.43
2023-02-22T04:04:25.359Z,81.81
2023-02-22T04:07:28.352Z,82.13
2023-02-22T04:10:31.878Z,82.16
2023-02-22T04:13:34.901Z,82.32
2023-02-22T04:16:37.885Z,82.62
2023-02-22T04:19:41.040Z,83.12
2023-02-22T04:22:43.977Z,83.25
2023-02-22T04:25:46.988Z,83.31
2023-02-22T04:28:49.911Z,83.27
2023-02-22T04:31:53.160Z,83.39
2023-02-22T04:34:56.238Z,83.29
2023-02-22T04:37:59.301Z,83.72
2023-02-22T04:41:02.504Z,84.29
2023-02-22T04:44:05.674Z,84.48
2023-02-22T04:47:08.693Z,84.37
2023-02-22T04:50:12.763Z,83.23
2023-02-22T04:53:15.934Z,82.39
2023-02-22T04:56:58.442Z,81.98
2023-02-22T05:00:40.516Z,82.41
2023-02-22T05:04:08.687Z,83.01
2023-02-22T05:07:35.796Z,83.30
2023-02-22T05:10:43.370Z,83.53
2023-02-22T05:14:04.466Z,83.86
2023-02-22T05:17:07.549Z,83.97
2023-02-22T05:20:19.780Z,84.13
2023-02-22T05:23:22.912Z,84.69
2023-02-22T05:26:26.113Z,85.07
2023-02-22T05:29:29.205Z,84.99
2023-02-22T05:32:32.282Z,84.35
2023-02-22T05:35:37.237Z,84.30
2023-02-22T05:38:44.876Z,84.10
2023-02-22T05:41:48.186Z,84.03
2023-02-22T05:44:51.273Z,84.73
2023-02-22T05:47:58.199Z,84.71
2023-02-22T05:51:01.188Z,84.40
2023-02-22T05:54:04.480Z,85.10
2023-02-22T05:57:10.608Z,85.17
2023-02-22T06:00:23.285Z,85.35
2023-02-22T06:03:26.536Z,85.02
2023-02-22T06:06:29.693Z,85.47
2023-02-22T06:09:32.810Z,85.30
2023-02-22T06:12:35.945Z,85.69
2023-02-22T06:15:53.848Z,85.67
2023-02-22T06:18:56.875Z,85.39
2023-02-22T06:22:03.356Z,85.46
2023-02-22T06:25:07.123Z,85.60
2023-02-22T06:28:11.041Z,85.79
2023-02-22T06:31:14.255Z,85.86
2023-02-22T06:34:17.975Z,85.93
2023-02-22T06:37:21.127Z,85.90
2023-02-22T06:40:24.313Z,86.28
2023-02-22T06:43:27.325Z,86.66
2023-02-22T06:46:30.396Z,86.43
2023-02-22T06:49:33.436Z,86.36
2023-02-22T06:52:36.485Z,86.13
2023-02-22T06:55:39.488Z,86.05
2023-02-22T06:58:42.510Z,85.92
2023-02-22T07:01:45.502Z,85.68
2023-02-22T07:04:48.588Z,85.51
2023-02-22T07:07:53.598Z,85.24
2023-02-22T07:10:56.891Z,84.90
2023-02-22T07:13:59.913Z,84.66
2023-02-22T07:17:03.451Z,84.58
2023-02-22T07:20:06.943Z,84.48
2023-02-22T07:23:10.007Z,84.26
2023-02-22T07:26:14.313Z,84.07
2023-02-22T07:29:17.465Z,83.70
2023-02-22T07:32:20.546Z,83.42
2023-02-22T07:35:31.918Z,83.06
2023-02-22T07:38:35.131Z,82.86
2023-02-22T07:41:40.560Z,82.57
2023-02-22T07:44:49.607Z,82.16
2023-02-22T07:47:53.263Z,80.96
2023-02-22T07:50:57.320Z,80.20
2023-02-22T07:54:00.393Z,79.75
2023-02-22T07:57:03.780Z,80.98
2023-02-22T08:00:07.418Z,80.65
2023-02-22T08:03:15.292Z,80.52
2023-02-22T08:06:18.433Z,80.80
2023-02-22T08:09:21.463Z,80.04
2023-02-22T08:12:24.514Z,78.27
2023-02-22T08:15:28.998Z,79.40
2023-02-22T08:18:32.148Z,79.40
2023-02-22T08:21:35.108Z,79.69
2023-02-22T08:24:38.253Z,79.77
2023-02-22T08:27:42.010Z,80.12
2023-02-22T08:30:45.002Z,79.19
2023-02-22T08:33:49.587Z,78.35
2023-02-22T08:36:52.990Z,78.79
2023-02-22T08:39:56.303Z,79.08
2023-02-22T08:42:59.827Z,78.99
2023-02-22T08:46:02.865Z,78.46
2023-02-22T08:49:10.713Z,77.91
2023-02-22T08:52:13.711Z,77.07
2023-02-22T08:55:19.897Z,75.44
2023-02-22T08:58:40.408Z,74.65
2023-02-22T09:02:10.945Z,75.72
2023-02-22T09:05:26.309Z,73.58
2023-02-22T09:08:29.449Z,72.88
2023-02-22T09:11:32.436Z,74.27
2023-02-22T09:14:35.493Z,75.38
2023-02-22T09:17:38.625Z,73.82
2023-02-22T09:20:42.123Z,70.11
2023-02-22T09:23:50.132Z,72.85
2023-02-22T09:27:10.624Z,70.89
2023-02-22T09:30:34.884Z,72.47
2023-02-22T09:33:39.048Z,73.69
2023-02-22T09:36:46.752Z,70.58
2023-02-22T09:39:51.426Z,67.68
2023-02-22T09:43:23.185Z,66.19
2023-02-22T09:46:29.948Z,63.50
2023-02-22T09:49:51.885Z,65.20
2023-02-22T09:53:53.397Z,65.23
2023-02-22T09:57:02.604Z,58.73
2023-02-22T10:00:22.214Z,55.76
2023-02-22T10:03:30.005Z,57.21
2023-02-22T10:06:34.859Z,59.02
2023-02-22T10:09:45.021Z,59.41
2023-02-22T10:12:56.980Z,59.71
2023-02-22T10:16:03.111Z,55.95
2023-02-22T10:19:12.235Z,55.93
2023-02-22T10:22:52.794Z,59.74
2023-02-22T10:26:04.722Z,58.74
2023-02-22T10:29:07.475Z,56.77
2023-02-22T10:32:45.644Z,57.81
2023-02-22T10:35:49.110Z,57.17
2023-02-22T10:38:58.608Z,53.80
2023-02-22T10:42:09.939Z,54.76
2023-02-22T10:45:50.399Z,58.11
2023-02-22T10:49:03.779Z,58.11
2023-02-22T10:52:17.375Z,57.48
2023-02-22T10:55:20.471Z,56.01
2023-02-22T10:58:24.714Z,57.05
2023-02-22T11:01:37.742Z,57.65
2023-02-22T11:04:55.884Z,57.37
2023-02-22T11:08:15.983Z,57.88
2023-02-22T11:11:24.883Z,57.23
2023-02-22T11:14:30.040Z,57.81
2023-02-22T11:17:34.636Z,55.97
2023-02-22T11:20:39.888Z,57.60
2023-02-22T11:23:45.089Z,57.82
2023-02-22T11:26:59.790Z,56.78
2023-02-22T11:30:18.627Z,55.17
2023-02-22T11:33:25.906Z,54.91
2023-02-22T11:36:40.596Z,55.52
2023-02-22T11:39:45.570Z,54.00
2023-02-22T11:43:16.198Z,55.80
2023-02-22T11:46:23.366Z,58.13
2023-02-22T11:49:34.486Z,58.77
2023-02-22T11:52:46.299Z,57.58
2023-02-22T11:56:06.163Z,55.65
2023-02-22T11:59:12.256Z,56.91
2023-02-22T12:02:51.909Z,57.88
2023-02-22T12:06:08.359Z,55.34
2023-02-22T12:09:33.254Z,55.67
2023-02-22T12:12:47.419Z,57.05
2023-02-22T12:16:16.684Z,57.99
2023-02-22T12:19:41.927Z,58.44
2023-02-22T12:22:55.558Z,58.32
2023-02-22T12:26:15.025Z,58.23
2023-02-22T12:29:39.661Z,58.68
2023-02-22T12:32:48.380Z,58.57
2023-02-22T12:35:58.600Z,57.90
2023-02-22T12:39:11.081Z,57.56
2023-02-22T12:42:42.827Z,57.59
2023-02-22T12:46:00.579Z,58.06
2023-02-22T12:49:24.950Z,58.27
2023-02-22T12:52:57.960Z,57.59
2023-02-22T12:56:19.419Z,59.13
2023-02-22T12:59:32.026Z,59.28
2023-02-22T13:03:17.915Z,58.63
2023-02-22T13:06:48.713Z,53.78
2023-02-22T13:09:59.667Z,55.38
2023-02-22T13:13:17.323Z,54.88
2023-02-22T13:16:32.861Z,55.81
2023-02-22T13:19:42.046Z,55.95
2023-02-22T13:23:04.493Z,56.58
2023-02-22T13:26:19.796Z,56.99
2023-02-22T13:29:29.988Z,57.13
2023-02-22T13:32:58.924Z,57.27
2023-02-22T13:36:01.874Z,57.37
2023-02-22T13:39:21.960Z,58.12
2023-02-22T13:42:50.481Z,57.85
2023-02-22T13:46:39.150Z,58.15
2023-02-22T13:49:59.973Z,57.57
2023-02-22T13:53:10.583Z,57.62
2023-02-22T13:56:14.899Z,58.09
2023-02-22T13:59:37.491Z,57.85
2023-02-22T14:03:08.301Z,57.52
2023-02-22T14:06:39.039Z,57.65
2023-02-22T14:10:30.846Z,57.92
2023-02-22T14:14:38.084Z,57.09
2023-02-22T14:18:03.397Z,58.18
2023-02-22T14:21:11.439Z,57.70
2023-02-22T14:24:16.757Z,58.10
2023-02-22T14:27:20.191Z,57.46
2023-02-22T14:31:29.437Z,58.16
2023-02-22T14:34:58.372Z,58.44
2023-02-22T14:38:02.462Z,58.06
2023-02-22T14:41:09.145Z,59.26
2023-02-22T14:44:13.824Z,59.26
2023-02-22T14:47:22.838Z,59.66
2023-02-22T14:50:30.309Z,60.11
2023-02-22T14:53:51.776Z,58.89
2023-02-22T14:57:15.362Z,59.35
2023-02-22T15:00:31.219Z,59.42
2023-02-22T15:03:38.320Z,60.80
2023-02-22T15:06:41.299Z,61.01
2023-02-22T15:09:48.450Z,60.71
2023-02-22T15:13:09.124Z,60.73
2023-02-22T15:16:14.555Z,60.72
2023-02-22T15:20:25.990Z,61.08
2023-02-22T15:24:04.158Z,61.11
2023-02-22T15:27:15.287Z,61.08
2023-02-22T15:30:26.857Z,61.67
2023-02-22T15:33:34.346Z,62.19
2023-02-22T15:36:37.500Z,61.99
2023-02-22T15:39:44.124Z,62.08
2023-02-22T15:43:09.069Z,61.43
2023-02-22T15:46:18.966Z,61.31
2023-02-22T15:49:40.384Z,61.88
2023-02-22T15:53:07.854Z,62.48
2023-02-22T15:56:15.550Z,62.20
2023-02-22T15:59:20.802Z,62.52
2023-02-22T16:02:40.183Z,62.76
2023-02-22T16:05:50.169Z,63.54
2023-02-22T16:08:55.886Z,63.55
2023-02-22T16:12:11.369Z,63.60
2023-02-22T16:15:17.341Z,63.59
2023-02-22T16:18:33.783Z,64.08
2023-02-22T16:21:53.613Z,64.00
2023-02-22T16:25:18.555Z,64.33
2023-02-22T16:28:35.764Z,64.74
2023-02-22T16:31:40.289Z,64.27
2023-02-22T16:34:43.560Z,64.33
2023-02-22T16:37:52.649Z,64.85
2023-02-22T16:40:58.533Z,65.34
2023-02-22T16:44:01.997Z,65.59
2023-02-22T16:47:04.996Z,65.30
2023-02-22T16:50:08.454Z,65.71
2023-02-22T16:53:12.101Z,65.55
2023-02-22T16:56:18.107Z,65.85
2023-02-22T16:59:21.511Z,65.80
2023-02-22T17:02:24.667Z,66.01
2023-02-22T17:05:28.037Z,66.14
2023-02-22T17:08:32.536Z,67.60
2023-02-22T17:11:36.986Z,68.18
2023-02-22T17:14:41.188Z,66.69
2023-02-22T17:17:44.122Z,67.23
2023-02-22T17:20:47.060Z,68.10
2023-02-22T17:24:47.544Z,68.66
2023-02-22T17:28:08.064Z,69.31
2023-02-22T17:31:31.513Z,69.93
2023-02-22T17:34:41.045Z,70.74
2023-02-22T17:37:53.848Z,72.40
2023-02-22T17:41:16.800Z,72.57
2023-02-22T17:44:43.681Z,71.75
2023-02-22T17:47:55.394Z,74.26
2023-02-22T17:51:19.920Z,74.62
2023-02-22T17:54:31.450Z,74.70
2023-02-22T17:57:50.614Z,75.17
2023-02-22T18:00:59.756Z,75.43
2023-02-22T18:04:35.155Z,78.52
2023-02-22T18:07:48.739Z,78.72
2023-02-22T18:10:59.051Z,78.83
2023-02-22T18:14:10.172Z,78.27
2023-02-22T18:17:13.236Z,76.79
2023-02-22T18:20:20.343Z,77.42
2023-02-22T18:23:27.170Z,77.30
2023-02-22T18:26:30.412Z,76.82
2023-02-22T18:29:34.054Z,76.71
2023-02-22T18:32:37.030Z,75.16
2023-02-22T18:35:42.994Z,72.99
2023-02-22T18:38:45.946Z,73.56
2023-02-22T18:41:48.958Z,75.26
2023-02-22T18:44:53.084Z,74.91
2023-02-22T18:47:56.178Z,75.15
2023-02-22T18:51:05.853Z,74.26
2023-02-22T18:54:08.927Z,74.65
2023-02-22T18:57:13.094Z,74.81
2023-02-22T19:00:18.889Z,74.54
2023-02-22T19:03:21.907Z,74.95
2023-02-22T19:06:24.984Z,75.19
2023-02-22T19:09:27.993Z,75.70
2023-02-22T19:12:31.707Z,75.81
2023-02-22T19:15:34.743Z,75.59
2023-02-22T19:18:38.010Z,76.50
2023-02-22T19:21:41.307Z,76.92
2023-02-22T19:24:45.369Z,76.12
2023-02-22T19:27:48.203Z,75.49
2023-02-22T19:30:51.354Z,74.84
2023-02-22T19:33:54.353Z,74.56
2023-02-22T19:37:00.801Z,74.42
2023-02-22T19:40:07.064Z,73.58
2023-02-22T19:43:10.551Z,73.21
2023-02-22T19:46:13.787Z,74.02
2023-02-22T19:49:16.821Z,73.95
2023-02-22T19:52:19.848Z,74.30
2023-02-22T19:55:22.849Z,74.28
2023-02-22T19:58:25.908Z,76.50
2023-02-22T20:01:33.531Z,75.82
2023-02-22T20:04:37.421Z,76.69
2023-02-22T20:07:40.531Z,76.91
2023-02-22T20:10:43.466Z,77.15
2023-02-22T20:13:46.854Z,78.49
2023-02-22T20:17:11.905Z,78.54
2023-02-22T20:20:30.676Z,78.37
2023-02-22T20:23:34.136Z,78.61
2023-02-22T20:26:39.028Z,78.60
2023-02-22T20:29:42.359Z,78.09
2023-02-22T20:32:45.385Z,78.71
2023-02-22T20:35:48.770Z,80.02
2023-02-22T20:38:54.307Z,79.71
2023-02-22T20:42:00.701Z,79.79
2023-02-22T20:45:06.170Z,78.82
2023-02-22T20:48:09.214Z,77.70
2023-02-22T20:51:14.687Z,78.44
2023-02-22T20:54:18.088Z,77.69
2023-02-22T20:57:20.912Z,77.56
2023-02-22T21:00:23.879Z,77.63
2023-02-22T21:03:26.747Z,77.57
2023-02-22T21:06:30.986Z,78.47
2023-02-22T21:09:34.011Z,78.95
2023-02-22T21:12:36.840Z,79.22
2023-02-22T21:15:43.568Z,78.51
2023-02-22T21:18:46.552Z,78.60
2023-02-22T21:21:49.466Z,78.74
2023-02-22T21:24:53.428Z,78.16
2023-02-22T21:27:56.308Z,77.81
2023-02-22T21:31:05.893Z,77.70
2023-02-22T21:34:12.295Z,77.85
2023-02-22T21:37:18.153Z,79.15
2023-02-22T21:40:21.047Z,80.27
2023-02-22T21:43:25.325Z,80.66
2023-02-22T21:46:29.549Z,81.22
2023-02-22T21:49:32.474Z,81.34
2023-02-22T21:52:35.403Z,80.50
2023-02-22T21:55:38.454Z,80.53
2023-02-22T21:58:44.841Z,79.73
2023-02-22T22:01:55.951Z,81.97
2023-02-22T22:04:59.246Z,79.54
2023-02-22T22:08:02.126Z,80.65
2023-02-22T22:11:05.899Z,81.77
2023-02-22T22:14:10.727Z,81.81
2023-02-22T22:17:13.729Z,81.57
2023-02-22T22:20:17.140Z,82.07
2023-02-22T22:23:20.027Z,82.27
2023-02-22T22:26:24.872Z,82.60
2023-02-22T22:29:28.750Z,83.58
2023-02-22T22:32:32.371Z,83.60
2023-02-22T22:35:38.685Z,83.06
2023-02-22T22:38:43.138Z,83.31
2023-02-22T22:41:46.099Z,83.77
2023-02-22T22:44:50.497Z,83.19
2023-02-22T22:47:53.495Z,82.49
2023-02-22T22:51:06.604Z,82.15
2023-02-22T22:54:10.512Z,82.45
2023-02-22T22:57:13.708Z,82.22
2023-02-22T23:00:26.943Z,83.37
2023-02-22T23:03:30.256Z,84.38
2023-02-22T23:06:36.559Z,84.19
2023-02-22T23:09:41.652Z,82.99
2023-02-22T23:12:44.930Z,84.30
2023-02-22T23:15:47.891Z,84.18
2023-02-22T23:18:51.541Z,83.25
2023-02-22T23:21:56.064Z,83.38
2023-02-22T23:25:00.035Z,83.75
2023-02-22T23:28:03.149Z,83.85
2023-02-22T23:31:08.579Z,82.96
2023-02-22T23:34:11.513Z,82.71
2023-02-22T23:37:14.482Z,83.04
2023-02-22T23:40:18.398Z,83.64
2023-02-22T23:43:25.566Z,84.23
2023-02-22T23:46:32.909Z,84.52
2023-02-22T23:49:37.171Z,83.99
2023-02-22T23:52:40.078Z,83.25
2023-02-22T23:55:44.322Z,82.39
2023-02-22T23:58:50.483Z,82.72
